createdAt,value
2023-05-02T00:00:24.810Z,5.73
2023-05-02T00:02:51.489Z,5.61
2023-05-02T00:05:18.216Z,5.55
2023-05-02T00:07:45.108Z,5.60
2023-05-02T00:10:11.554Z,5.64
2023-05-02T00:12:38.834Z,5.70
2023-05-02T00:15:05.793Z,5.66
2023-05-02T00:17:32.443Z,5.71
2023-05-02T00:19:59.312Z,5.73
2023-05-02T00:22:25.912Z,5.80
2023-05-02T00:24:56.646Z,5.87
2023-05-02T00:27:23.093Z,5.92
2023-05-02T00:29:49.529Z,5.88
2023-05-02T00:32:15.942Z,5.92
2023-05-02T00:34:42.359Z,6.00
2023-05-02T00:37:08.856Z,6.11
2023-05-02T00:39:35.864Z,6.22
2023-05-02T00:42:02.623Z,6.29
2023-05-02T00:44:29.220Z,6.30
2023-05-02T00:46:56.658Z,6.16
2023-05-02T00:49:23.329Z,6.04
2023-05-02T00:51:49.764Z,5.96
2023-05-02T00:54:16.170Z,5.90
2023-05-02T00:56:42.609Z,5.84
2023-05-02T00:59:10.835Z,5.83
2023-05-02T01:01:50.079Z,5.86
2023-05-02T01:04:19.909Z,5.84
2023-05-02T01:07:05.329Z,5.83
2023-05-02T01:09:42.133Z,5.87
2023-05-02T01:12:28.113Z,5.87
2023-05-02T01:14:55.859Z,5.88
2023-05-02T01:17:24.936Z,5.85
2023-05-02T01:19:54.133Z,5.79
2023-05-02T01:22:21.884Z,5.75
2023-05-02T01:24:51.364Z,5.73
2023-05-02T01:27:23.696Z,5.71
2023-05-02T01:29:51.297Z,5.64
2023-05-02T01:32:20.430Z,5.62
2023-05-02T01:34:47.163Z,5.64
2023-05-02T01:37:14.521Z,5.60
2023-05-02T01:39:41.442Z,5.59
2023-05-02T01:42:07.912Z,5.61
2023-05-02T01:44:36.522Z,5.59
2023-05-02T01:47:05.399Z,5.53
2023-05-02T01:49:33.358Z,5.50
2023-05-02T01:52:03.271Z,5.41
2023-05-02T01:54:30.891Z,5.34
2023-05-02T01:56:58.525Z,5.33
2023-05-02T01:59:25.689Z,5.33
2023-05-02T02:01:52.757Z,5.23
2023-05-02T02:04:19.770Z,5.22
2023-05-02T02:06:48.408Z,5.37
2023-05-02T02:09:15.097Z,5.40
2023-05-02T02:11:47.768Z,5.59
2023-05-02T02:14:26.225Z,5.69
2023-05-02T02:16:55.303Z,5.70
2023-05-02T02:19:22.811Z,5.92
2023-05-02T02:21:50.884Z,6.11
2023-05-02T02:24:18.871Z,6.09
2023-05-02T02:26:46.479Z,6.31
2023-05-02T02:29:12.999Z,6.48
2023-05-02T02:31:39.883Z,6.59
2023-05-02T02:34:06.609Z,6.60
2023-05-02T02:36:33.049Z,6.56
2023-05-02T02:39:02.473Z,6.59
2023-05-02T02:41:33.073Z,6.50
2023-05-02T02:44:14.785Z,6.47
2023-05-02T02:46:44.326Z,6.28
2023-05-02T02:49:30.336Z,6.11
2023-05-02T02:51:56.806Z,6.03
2023-05-02T02:54:46.577Z,5.91
2023-05-02T02:57:16.104Z,5.82
2023-05-02T02:59:48.616Z,5.67
2023-05-02T03:02:17.443Z,5.49
2023-05-02T03:04:44.613Z,5.40
2023-05-02T03:07:11.184Z,5.31
2023-05-02T03:09:41.394Z,5.39
2023-05-02T03:12:07.924Z,5.40
2023-05-02T03:14:34.527Z,5.52
2023-05-02T03:17:00.951Z,5.68
2023-05-02T03:19:27.867Z,5.82
2023-05-02T03:21:54.293Z,5.87
2023-05-02T03:24:20.722Z,5.86
2023-05-02T03:26:48.081Z,5.82
2023-05-02T03:29:15.530Z,5.79
2023-05-02T03:31:42.206Z,5.75
2023-05-02T03:34:08.718Z,5.74
2023-05-02T03:36:35.166Z,5.78
2023-05-02T03:39:01.609Z,5.86
2023-05-02T03:41:28.040Z,5.93
2023-05-02T03:43:54.461Z,6.00
2023-05-02T03:46:21.326Z,6.06
2023-05-02T03:48:47.894Z,6.02
2023-05-02T03:51:14.504Z,6.02
2023-05-02T03:53:40.978Z,6.09
2023-05-02T03:56:08.445Z,6.11
2023-05-02T03:58:36.384Z,6.27
2023-05-02T04:01:02.944Z,6.41
2023-05-02T04:03:30.096Z,6.52
2023-05-02T04:05:56.682Z,6.61
2023-05-02T04:08:23.667Z,6.71
2023-05-02T04:10:51.139Z,6.85
2023-05-02T04:13:17.560Z,7.15
2023-05-02T04:15:45.184Z,7.31
2023-05-02T04:18:11.664Z,7.50
2023-05-02T04:20:38.158Z,7.70
2023-05-02T04:23:04.580Z,7.87
2023-05-02T04:25:32.813Z,7.99
2023-05-02T04:27:59.232Z,8.05
2023-05-02T04:30:25.799Z,8.09
2023-05-02T04:32:52.375Z,8.10
2023-05-02T04:35:18.931Z,8.16
2023-05-02T04:37:45.370Z,8.25
2023-05-02T04:40:12.523Z,8.28
2023-05-02T04:42:38.984Z,8.32
2023-05-02T04:45:05.903Z,8.37
2023-05-02T04:47:32.312Z,8.44
2023-05-02T04:49:58.971Z,8.50
2023-05-02T04:52:25.626Z,8.55
2023-05-02T04:54:52.179Z,8.63
2023-05-02T04:57:19.044Z,8.67
2023-05-02T04:59:46.410Z,8.73
2023-05-02T05:02:13.223Z,8.76
2023-05-02T05:04:39.776Z,8.82
2023-05-02T05:07:06.572Z,8.92
2023-05-02T05:09:32.953Z,8.97
2023-05-02T05:11:59.594Z,9.02
2023-05-02T05:14:26.341Z,9.01
2023-05-02T05:16:52.900Z,8.97
2023-05-02T05:19:19.334Z,8.97
2023-05-02T05:21:45.759Z,8.97
2023-05-02T05:24:12.195Z,8.99
2023-05-02T05:26:38.690Z,9.07
2023-05-02T05:29:05.106Z,9.15
2023-05-02T05:31:31.556Z,9.27
2023-05-02T05:33:58.139Z,9.42
2023-05-02T05:36:24.802Z,9.56
2023-05-02T05:38:51.424Z,9.79
2023-05-02T05:41:18.038Z,9.91
2023-05-02T05:43:44.512Z,9.97
2023-05-02T05:46:10.956Z,10.04
2023-05-02T05:48:37.422Z,10.00
2023-05-02T05:51:06.872Z,10.07
2023-05-02T05:53:33.671Z,10.24
2023-05-02T05:56:00.247Z,10.41
2023-05-02T05:58:26.647Z,10.41
2023-05-02T06:00:53.348Z,10.46
2023-05-02T06:03:19.963Z,10.70
2023-05-02T06:05:46.474Z,10.80
2023-05-02T06:08:12.929Z,10.97
2023-05-02T06:10:39.365Z,11.25
2023-05-02T06:13:06.100Z,11.07
2023-05-02T06:15:33.452Z,11.03
2023-05-02T06:18:00.012Z,10.93
2023-05-02T06:20:26.743Z,10.88
2023-05-02T06:22:53.188Z,11.37
2023-05-02T06:25:19.588Z,11.80
2023-05-02T06:27:45.977Z,12.13
2023-05-02T06:30:12.570Z,11.99
2023-05-02T06:32:39.072Z,11.89
2023-05-02T06:35:06.014Z,12.04
2023-05-02T06:37:35.918Z,12.00
2023-05-02T06:40:03.096Z,11.88
2023-05-02T06:42:29.752Z,11.83
2023-05-02T06:44:56.567Z,11.65
2023-05-02T06:47:24.384Z,11.45
2023-05-02T06:49:51.944Z,11.27
2023-05-02T06:52:18.484Z,11.50
2023-05-02T06:54:44.961Z,11.62
2023-05-02T06:57:11.569Z,11.88
2023-05-02T06:59:38.005Z,12.06
2023-05-02T07:02:05.493Z,12.05
2023-05-02T07:04:32.237Z,11.87
2023-05-02T07:06:58.686Z,11.83
2023-05-02T07:09:25.150Z,11.67
2023-05-02T07:11:51.591Z,11.97
2023-05-02T07:14:18.016Z,11.64
2023-05-02T07:16:44.561Z,11.87
2023-05-02T07:19:10.986Z,11.93
2023-05-02T07:21:37.409Z,11.87
2023-05-02T07:24:03.973Z,11.85
2023-05-02T07:26:30.507Z,11.85
2023-05-02T07:28:56.922Z,11.77
2023-05-02T07:31:23.620Z,11.54
2023-05-02T07:33:50.125Z,11.71
2023-05-02T07:36:18.032Z,11.78
2023-05-02T07:38:44.498Z,11.66
2023-05-02T07:41:10.995Z,11.42
2023-05-02T07:43:37.430Z,11.35
2023-05-02T07:46:04.431Z,11.24
2023-05-02T07:48:31.201Z,11.24
2023-05-02T07:51:05.841Z,11.36
2023-05-02T07:53:32.340Z,11.40
2023-05-02T07:55:58.747Z,11.58
2023-05-02T07:58:25.173Z,11.60
2023-05-02T08:00:51.604Z,11.82
2023-05-02T08:03:18.054Z,11.91
2023-05-02T08:05:44.531Z,11.88
2023-05-02T08:08:10.957Z,11.90
2023-05-02T08:10:37.365Z,12.04
2023-05-02T08:13:03.804Z,12.11
2023-05-02T08:15:30.748Z,12.12
2023-05-02T08:17:57.424Z,12.18
2023-05-02T08:20:23.916Z,12.27
2023-05-02T08:22:51.451Z,12.45
2023-05-02T08:25:17.876Z,12.39
2023-05-02T08:27:44.302Z,12.17
2023-05-02T08:30:11.102Z,12.05
2023-05-02T08:32:37.750Z,12.23
2023-05-02T08:35:04.374Z,11.94
2023-05-02T08:37:32.183Z,12.23
2023-05-02T08:39:58.910Z,12.55
2023-05-02T08:42:26.209Z,12.60
2023-05-02T08:44:52.875Z,12.39
2023-05-02T08:47:19.613Z,12.40
2023-05-02T08:49:46.692Z,12.47
2023-05-02T08:52:13.675Z,12.47
2023-05-02T08:54:40.699Z,12.47
2023-05-02T08:57:08.012Z,12.19
2023-05-02T08:59:34.525Z,11.99
2023-05-02T09:02:23.311Z,12.23
2023-05-02T09:04:51.093Z,12.12
2023-05-02T09:07:17.540Z,12.09
2023-05-02T09:09:44.157Z,11.80
2023-05-02T09:12:10.679Z,12.03
2023-05-02T09:14:37.099Z,12.23
2023-05-02T09:17:03.837Z,12.17
2023-05-02T09:19:30.436Z,12.15
2023-05-02T09:22:01.463Z,12.31
2023-05-02T09:24:28.568Z,12.27
2023-05-02T09:26:59.189Z,12.37
2023-05-02T09:29:27.044Z,12.34
2023-05-02T09:31:56.286Z,12.22
2023-05-02T09:34:23.539Z,12.33
2023-05-02T09:36:52.198Z,12.13
2023-05-02T09:39:22.433Z,12.42
2023-05-02T09:41:49.267Z,12.79
2023-05-02T09:44:18.454Z,12.80
2023-05-02T09:46:48.883Z,12.93
2023-05-02T09:49:15.449Z,13.12
2023-05-02T09:51:44.080Z,12.98
2023-05-02T09:54:10.675Z,12.94
2023-05-02T09:56:58.928Z,12.73
2023-05-02T09:59:25.762Z,12.45
2023-05-02T10:02:00.020Z,12.42
2023-05-02T10:04:27.332Z,12.74
2023-05-02T10:06:54.257Z,12.50
2023-05-02T10:09:21.807Z,12.72
2023-05-02T10:11:51.545Z,12.85
2023-05-02T10:14:19.689Z,12.65
2023-05-02T10:16:52.177Z,13.09
2023-05-02T10:19:22.642Z,12.96
2023-05-02T10:21:49.648Z,13.30
2023-05-02T10:24:16.702Z,13.44
2023-05-02T10:26:43.602Z,13.52
2023-05-02T10:29:11.490Z,13.53
2023-05-02T10:31:39.797Z,13.20
2023-05-02T10:34:10.646Z,13.17
2023-05-02T10:36:37.192Z,13.42
2023-05-02T10:39:03.732Z,13.53
2023-05-02T10:41:32.047Z,13.22
2023-05-02T10:44:00.022Z,12.94
2023-05-02T10:46:34.078Z,13.11
2023-05-02T10:49:03.751Z,13.10
2023-05-02T10:51:31.442Z,13.74
2023-05-02T10:54:33.238Z,13.88
2023-05-02T10:57:00.314Z,13.60
2023-05-02T10:59:27.780Z,13.42
2023-05-02T11:01:54.284Z,13.35
2023-05-02T11:04:20.752Z,13.48
2023-05-02T11:06:59.447Z,13.87
2023-05-02T11:09:28.668Z,13.44
2023-05-02T11:11:56.520Z,13.77
2023-05-02T11:14:26.092Z,13.91
2023-05-02T11:17:01.791Z,13.55
2023-05-02T11:19:31.085Z,13.72
2023-05-02T11:22:21.863Z,14.46
2023-05-02T11:24:49.237Z,14.24
2023-05-02T11:27:31.137Z,13.43
2023-05-02T11:30:07.627Z,13.21
2023-05-02T11:32:46.710Z,13.08
2023-05-02T11:35:16.413Z,13.16
2023-05-02T11:37:42.845Z,13.61
2023-05-02T11:40:12.998Z,14.05
2023-05-02T11:42:39.498Z,13.86
2023-05-02T11:45:06.080Z,14.05
2023-05-02T11:47:32.896Z,14.03
2023-05-02T11:50:02.307Z,14.08
2023-05-02T11:52:28.878Z,14.33
2023-05-02T11:54:58.313Z,14.42
2023-05-02T11:57:25.556Z,14.16
2023-05-02T11:59:53.023Z,13.52
2023-05-02T12:02:19.745Z,13.67
2023-05-02T12:04:46.197Z,13.69
2023-05-02T12:07:12.983Z,13.38
2023-05-02T12:09:52.934Z,13.26
2023-05-02T12:12:20.011Z,13.08
2023-05-02T12:14:46.433Z,12.95
2023-05-02T12:17:13.024Z,13.11
2023-05-02T12:19:39.813Z,12.98
2023-05-02T12:22:07.855Z,13.01
2023-05-02T12:24:36.215Z,12.79
2023-05-02T12:27:15.969Z,12.84
2023-05-02T12:29:43.397Z,12.62
2023-05-02T12:32:10.626Z,12.72
2023-05-02T12:34:37.621Z,12.81
2023-05-02T12:37:04.435Z,12.59
2023-05-02T12:39:43.525Z,12.43
2023-05-02T12:42:16.746Z,12.64
2023-05-02T12:44:44.601Z,12.40
2023-05-02T12:47:12.332Z,12.34
2023-05-02T12:49:56.439Z,12.04
2023-05-02T12:52:43.280Z,11.91
2023-05-02T12:55:19.726Z,12.05
2023-05-02T12:57:46.670Z,12.34
2023-05-02T13:00:13.680Z,12.39
2023-05-02T13:02:40.126Z,12.36
2023-05-02T13:05:16.371Z,11.89
2023-05-02T13:07:42.830Z,11.65
2023-05-02T13:10:09.608Z,11.72
2023-05-02T13:12:38.283Z,11.59
2023-05-02T13:15:05.434Z,11.44
2023-05-02T13:17:32.119Z,11.46
2023-05-02T13:20:01.976Z,11.43
2023-05-02T13:22:29.182Z,11.17
2023-05-02T13:24:55.994Z,11.24
2023-05-02T13:27:25.439Z,11.21
2023-05-02T13:29:52.323Z,11.13
2023-05-02T13:32:18.836Z,10.91
2023-05-02T13:34:46.017Z,10.83
2023-05-02T13:37:12.517Z,11.15
2023-05-02T13:39:38.949Z,11.01
2023-05-02T13:42:06.431Z,11.40
2023-05-02T13:44:33.064Z,11.39
2023-05-02T13:46:59.556Z,11.60
2023-05-02T13:49:26.130Z,11.81
2023-05-02T13:51:52.586Z,11.79
2023-05-02T13:54:19.084Z,11.85
2023-05-02T13:56:45.511Z,11.93
2023-05-02T13:59:11.913Z,12.01
2023-05-02T14:01:40.545Z,12.27
2023-05-02T14:04:09.106Z,12.34
2023-05-02T14:06:36.166Z,12.36
2023-05-02T14:09:02.686Z,12.77
2023-05-02T14:11:29.130Z,12.72
2023-05-02T14:13:57.662Z,13.09
2023-05-02T14:16:24.502Z,12.97
2023-05-02T14:18:51.155Z,12.72
2023-05-02T14:21:17.612Z,12.60
2023-05-02T14:23:44.075Z,12.63
2023-05-02T14:26:10.559Z,12.82
2023-05-02T14:28:38.463Z,12.92
2023-05-02T14:31:07.507Z,12.81
2023-05-02T14:33:34.057Z,12.75
2023-05-02T14:36:00.619Z,12.63
2023-05-02T14:38:27.050Z,12.55
2023-05-02T14:40:53.474Z,12.51
2023-05-02T14:43:19.917Z,12.59
2023-05-02T14:45:46.320Z,12.62
2023-05-02T14:48:14.241Z,12.36
2023-05-02T14:50:40.991Z,12.12
2023-05-02T14:53:07.466Z,11.87
2023-05-02T14:55:38.708Z,11.83
2023-05-02T14:58:06.087Z,11.74
2023-05-02T15:00:33.841Z,11.60
2023-05-02T15:03:01.572Z,11.48
2023-05-02T15:05:28.309Z,11.40
2023-05-02T15:07:54.782Z,11.34
2023-05-02T15:10:21.258Z,11.34
2023-05-02T15:12:50.882Z,11.35
2023-05-02T15:15:17.918Z,11.37
2023-05-02T15:17:44.596Z,11.40
2023-05-02T15:20:11.742Z,11.31
2023-05-02T15:22:38.185Z,11.25
2023-05-02T15:25:05.474Z,11.10
2023-05-02T15:27:32.058Z,11.33
2023-05-02T15:29:58.514Z,11.34
2023-05-02T15:32:24.960Z,11.35
2023-05-02T15:34:51.424Z,11.29
2023-05-02T15:37:17.816Z,11.08
2023-05-02T15:39:44.247Z,10.95
2023-05-02T15:42:11.011Z,10.84
2023-05-02T15:44:37.708Z,10.80
2023-05-02T15:47:04.189Z,10.79
2023-05-02T15:49:33.141Z,10.69
2023-05-02T15:52:00.158Z,10.51
2023-05-02T15:54:26.752Z,10.40
2023-05-02T15:56:53.398Z,10.33
2023-05-02T15:59:19.860Z,10.23
2023-05-02T16:01:46.329Z,10.17
2023-05-02T16:04:12.863Z,10.09
2023-05-02T16:06:42.406Z,9.98
2023-05-02T16:09:10.090Z,9.95
2023-05-02T16:11:36.614Z,9.90
2023-05-02T16:14:03.772Z,9.77
2023-05-02T16:16:30.424Z,9.70
2023-05-02T16:18:57.057Z,9.62
2023-05-02T16:21:23.515Z,9.59
2023-05-02T16:23:49.936Z,9.50
2023-05-02T16:26:16.379Z,9.45
2023-05-02T16:28:42.790Z,9.37
2023-05-02T16:31:11.427Z,9.32
2023-05-02T16:33:39.058Z,9.27
2023-05-02T16:36:05.997Z,9.22
2023-05-02T16:38:32.692Z,9.14
2023-05-02T16:41:02.625Z,9.05
2023-05-02T16:43:29.074Z,8.97
2023-05-02T16:46:02.421Z,8.91
2023-05-02T16:48:28.949Z,8.79
2023-05-02T16:50:56.771Z,8.73
2023-05-02T16:53:23.242Z,8.68
2023-05-02T16:55:49.668Z,8.56
2023-05-02T16:58:16.273Z,8.50
2023-05-02T17:00:42.699Z,8.43
2023-05-02T17:03:09.470Z,8.40
2023-05-02T17:08:03.286Z,8.32
2023-05-02T17:10:29.787Z,8.30
2023-05-02T17:12:58.395Z,8.25
2023-05-02T17:15:24.992Z,8.24
2023-05-02T17:17:51.837Z,8.21
2023-05-02T17:20:18.719Z,8.14
2023-05-02T17:22:45.165Z,8.12
2023-05-02T17:25:11.657Z,8.07
2023-05-02T17:27:40.677Z,8.02
2023-05-02T17:30:07.912Z,7.99
2023-05-02T17:32:35.452Z,7.91
2023-05-02T17:35:02.011Z,7.89
2023-05-02T17:37:28.898Z,7.87
2023-05-02T17:39:55.437Z,7.81
2023-05-02T17:42:21.850Z,7.78
2023-05-02T17:44:48.467Z,7.75
2023-05-02T17:47:14.955Z,7.66
2023-05-02T17:49:41.537Z,7.65
2023-05-02T17:52:07.969Z,7.61
2023-05-02T17:54:34.409Z,7.57
2023-05-02T17:57:00.825Z,7.54
2023-05-02T17:59:27.515Z,7.52
2023-05-02T18:01:53.993Z,7.46
2023-05-02T18:04:20.627Z,7.42
2023-05-02T18:06:47.164Z,7.39
2023-05-02T18:09:13.746Z,7.38
2023-05-02T18:11:40.236Z,7.35
2023-05-02T18:14:07.726Z,7.35
2023-05-02T18:16:36.397Z,7.32
2023-05-02T18:19:03.419Z,7.29
2023-05-02T18:21:35.402Z,7.26
2023-05-02T18:24:03.366Z,7.24
2023-05-02T18:26:32.881Z,7.20
2023-05-02T18:29:02.322Z,7.17
2023-05-02T18:31:29.486Z,7.16
2023-05-02T18:33:56.368Z,7.13
2023-05-02T18:36:27.144Z,7.05
2023-05-02T18:38:54.205Z,7.03
2023-05-02T18:41:20.907Z,7.01
2023-05-02T18:43:47.684Z,6.99
2023-05-02T18:46:21.577Z,6.97
2023-05-02T18:48:50.350Z,6.97
2023-05-02T18:51:17.119Z,6.93
2023-05-02T18:53:45.874Z,6.92
2023-05-02T18:56:14.224Z,6.92
2023-05-02T18:58:41.380Z,6.92
2023-05-02T19:01:15.184Z,6.91
2023-05-02T19:03:43.567Z,6.92
2023-05-02T19:06:10.919Z,6.90
2023-05-02T19:08:38.263Z,6.90
2023-05-02T19:11:05.737Z,6.86
2023-05-02T19:13:32.640Z,6.86
2023-05-02T19:16:04.084Z,6.83
2023-05-02T19:18:31.107Z,6.80
2023-05-02T19:20:57.978Z,6.81
2023-05-02T19:23:25.263Z,6.81
2023-05-02T19:25:52.758Z,6.78
2023-05-02T19:28:21.827Z,6.76
2023-05-02T19:30:48.431Z,6.76
2023-05-02T19:33:15.199Z,6.76
2023-05-02T19:35:42.439Z,6.76
2023-05-02T19:38:09.436Z,6.73
2023-05-02T19:40:37.332Z,6.71
2023-05-02T19:43:11.233Z,6.70
2023-05-02T19:45:38.601Z,6.70
2023-05-02T19:48:05.630Z,6.71
2023-05-02T19:50:34.053Z,6.68
2023-05-02T19:53:02.440Z,6.69
2023-05-02T19:55:29.156Z,6.69
2023-05-02T19:57:57.088Z,6.68
2023-05-02T20:00:24.385Z,6.68
2023-05-02T20:02:51.743Z,6.67
2023-05-02T20:05:18.869Z,6.62
2023-05-02T20:07:47.162Z,6.61
2023-05-02T20:10:15.551Z,6.63
2023-05-02T20:12:48.575Z,6.63
2023-05-02T20:15:18.869Z,6.63
2023-05-02T20:17:46.113Z,6.64
2023-05-02T20:20:15.272Z,6.63
2023-05-02T20:22:42.294Z,6.63
2023-05-02T20:25:10.444Z,6.64
2023-05-02T20:27:39.880Z,6.60
2023-05-02T20:30:13.232Z,6.59
2023-05-02T20:32:40.123Z,6.59
2023-05-02T20:35:10.345Z,6.61
2023-05-02T20:37:37.373Z,6.62
2023-05-02T20:40:10.987Z,6.62
2023-05-02T20:42:40.426Z,6.63
2023-05-02T20:45:10.797Z,6.63
2023-05-02T20:47:40.172Z,6.61
2023-05-02T20:50:11.648Z,6.61
2023-05-02T20:52:39.775Z,6.59
2023-05-02T20:55:09.516Z,6.58
2023-05-02T20:57:36.349Z,6.60
2023-05-02T21:00:08.849Z,6.62
2023-05-02T21:02:43.395Z,6.60
2023-05-02T21:05:10.262Z,6.60
2023-05-02T21:07:42.954Z,6.62
2023-05-02T21:10:09.825Z,6.62
2023-05-02T21:12:38.992Z,6.63
2023-05-02T21:15:06.524Z,6.62
2023-05-02T21:17:34.435Z,6.62
2023-05-02T21:20:01.731Z,6.62
2023-05-02T21:22:33.708Z,6.61
2023-05-02T21:25:04.150Z,6.60
2023-05-02T21:27:31.443Z,6.61
2023-05-02T21:29:58.402Z,6.59
2023-05-02T21:32:28.173Z,6.61
2023-05-02T21:34:55.165Z,6.57
2023-05-02T21:37:22.562Z,6.61
2023-05-02T21:39:54.058Z,6.60
2023-05-02T21:42:21.530Z,6.63
2023-05-02T21:44:48.144Z,6.62
2023-05-02T21:47:17.814Z,6.61
2023-05-02T21:49:44.641Z,6.60
2023-05-02T21:52:12.978Z,6.59
2023-05-02T21:54:40.022Z,6.57
2023-05-02T21:57:07.446Z,6.57
2023-05-02T21:59:36.224Z,6.56
2023-05-02T22:02:02.967Z,6.56
2023-05-02T22:04:31.965Z,6.53
2023-05-02T22:07:01.971Z,6.51
2023-05-02T22:09:30.342Z,6.54
2023-05-02T22:11:58.935Z,6.53
2023-05-02T22:14:33.925Z,6.51
2023-05-02T22:17:10.851Z,6.50
2023-05-02T22:19:38.488Z,6.49
2023-05-02T22:22:05.761Z,6.50
2023-05-02T22:24:33.437Z,6.50
2023-05-02T22:27:00.096Z,6.48
2023-05-02T22:29:27.222Z,6.46
2023-05-02T22:31:54.081Z,6.48
2023-05-02T22:34:21.091Z,6.46
2023-05-02T22:36:48.808Z,6.47
2023-05-02T22:39:15.944Z,6.46
2023-05-02T22:41:43.034Z,6.41
2023-05-02T22:44:11.742Z,6.43
2023-05-02T22:46:38.751Z,6.40
2023-05-02T22:49:06.413Z,6.43
2023-05-02T22:51:33.438Z,6.43
2023-05-02T22:54:03.097Z,6.39
2023-05-02T22:56:31.305Z,6.40
2023-05-02T22:58:58.196Z,6.39
2023-05-02T23:01:25.315Z,6.37
2023-05-02T23:03:52.136Z,6.34
2023-05-02T23:06:21.581Z,6.35
2023-05-02T23:08:48.403Z,6.34
2023-05-02T23:11:15.196Z,6.33
2023-05-02T23:13:41.900Z,6.33
2023-05-02T23:16:08.924Z,6.30
2023-05-02T23:18:35.513Z,6.27
2023-05-02T23:21:03.637Z,6.29
2023-05-02T23:23:32.427Z,6.28
2023-05-02T23:25:59.057Z,6.25
2023-05-02T23:28:26.205Z,6.21
2023-05-02T23:30:53.712Z,6.18
2023-05-02T23:33:20.478Z,6.16
2023-05-02T23:35:47.193Z,6.16
2023-05-02T23:38:14.255Z,6.14
2023-05-02T23:40:43.150Z,6.14
2023-05-02T23:43:10.400Z,6.13
2023-05-02T23:45:37.386Z,6.11
2023-05-02T23:48:04.154Z,6.12
2023-05-02T23:50:31.976Z,6.13
2023-05-02T23:52:58.932Z,6.13
2023-05-02T23:55:25.774Z,6.13
2023-05-02T23:57:52.448Z,6.15
